Watford, Canada
Current Conditions -  °F | °C
As of 8:00 PM on Sunday 23 Nov 2014 (Local Time) from CYZR Reporting Station
Broken Clouds Broken Clouds  
Wind Chill: 50°   Ceiling: 20000
Heat Index: 50°   Visibility: 9mi
Dew Point: 43°   Wind: 14mph
Humidity: 76%   Direction: 140°SE
Pressure: 29.56"   Gusts: 21mph
Location:  42.95°N, 81.88°W
Report Text: CYZR 240100Z AUTO 14012G18KT 9SM SCT150 BKN200 BKN220 10/06 A2956 RMK PRESFR SLP014
Loading
Personal Weather Stations






























Interactive Weather Map New forecast layout! Learn more

10-Day Weather Forecast

Advertisements
Track Severe Weather on mobile